Huvudsida
METAR-TAF:

METAR-TAF

Flygplatser :

Hasviks, Norge

Hasviks flygplats

latitud: 70-29N, longitud: 022-09E, höjd: 10 m

Aktuellt väderrapport

Denna rapport gjordes för 19 timmar och 10 minuter sedan, klockan 19:50 UTC
Vind 17 kt från ost
Temperatur 1°C
Fuktighet 100%
Tryck 1004 hPa
Sikt: 6000 m
Få moln på en höjd av 600 ft
Spridda moln på en höjd av 900 ft
Brutna moln på en höjd av 1500 ft
lätt snö, regn

METAR: ENHK 201950Z 10017KT 6000 -SNRA FEW006 SCT009 BKN015 01/01 Q1004

Tid: 17:00 (15:00 UTC)


TAF: saknas

Aktuella väderrapporter och prognoser från 4000 flygplatser (METAR- och TAF-rapporter).

De tillgängliga stationerna syns som gula och röda prickar på kartan.

För musen över prickarna för att se namnen på stationerna.

Klicka sedan för att få väderrapporter och prognoser.

För att ändra kartan: Klicka på de gröna knapparna med ett svart kors på för att zooma in; den gröna knappen med ett streck på för att zooma ut; eller på de gröna pilarna för angränsande kartor.


METAR-TAF: